Terminal Aerodrome Forecast
Issued by NWS

Home | Current Version | Previous Version | Text Only | Print | Product List | Glossary On
Versions: 1 2 3 4 5 6 7 8 9 10 11 12 13 14 15 16 17 18 19 20 21 22 23
000
FTUS44 KLIX 291700 RRA
TAFHDC
TAF
KHDC 291741Z 2918/3018 13008KT P6SM SCT035 BKN090
     FM292000 16008KT P6SM VCSH BKN050 BKN130
      TEMPO 2920/2924 VRB10G20KT 3SM TSRA SCT030CB BKN040
     FM300600 VRB03KT P6SM OVC025
      TEMPO 3010/3012 5SM BR BKN010=

USA.gov is the U.S. government's official web portal to all federal, state and local government web resources and services.